Time;durP1;ratioP1;P1;durP2;ratioP2;P2;SDS_P1;SDS_P2;PMS_P1;PMS_P2;Temp;Humidity;BMP_temperature;BMP_pressure;BME280_temperature;BME280_humidity;BME280_pressure;Samples;Min_cycle;Max_cycle;Signal;HPM_P1;HPM_P2
2022/11/21 00:00:21;;;;;;;1.03;0.70;;;;;;;4.15;93.86;94726.38;4947996;28;20193;-83
2022/11/21 00:02:47;;;;;;;0.83;0.63;;;;;;;4.09;94.26;94720.94;4965319;28;20205;-83
2022/11/21 00:05:13;;;;;;;1.30;0.80;;;;;;;4.15;93.80;94720.41;4974926;28;20194;-83
2022/11/21 00:07:38;;;;;;;3.57;0.93;;;;;;;4.01;95.20;94716.44;4964463;28;20199;-84
2022/11/21 00:10:04;;;;;;;3.50;1.10;;;;;;;3.91;95.30;94715.56;4967759;28;20652;-85
2022/11/21 00:12:29;;;;;;;2.73;1.00;;;;;;;3.98;95.33;94708.97;4974485;28;20235;-84
2022/11/21 00:14:54;;;;;;;2.43;1.00;;;;;;;3.98;94.85;94706.41;4976245;28;20668;-83
2022/11/21 00:17:20;;;;;;;5.27;1.87;;;;;;;4.05;93.41;94707.50;4950882;28;20206;-83
2022/11/21 00:19:45;;;;;;;2.43;1.40;;;;;;;4.05;92.94;94715.22;4949073;28;20207;-83
2022/11/21 00:22:10;;;;;;;6.67;1.67;;;;;;;4.21;92.57;94714.75;4969860;28;20263;-84
2022/11/21 00:24:36;;;;;;;6.93;1.77;;;;;;;4.25;93.15;94708.41;4968010;28;20783;-84
2022/11/21 00:27:01;;;;;;;5.37;1.47;;;;;;;4.26;92.70;94710.03;4973240;28;20189;-83
2022/11/21 00:29:26;;;;;;;4.97;1.37;;;;;;;4.24;92.73;94702.47;4951339;28;20203;-84
2022/11/21 00:31:52;;;;;;;8.27;1.80;;;;;;;4.23;93.27;94690.53;4953115;28;20689;-84
2022/11/21 00:34:17;;;;;;;4.63;1.40;;;;;;;4.26;92.87;94697.19;4950524;28;20191;-84
2022/11/21 00:36:43;;;;;;;3.60;1.40;;;;;;;4.19;93.19;94696.88;4977343;28;20199;-83
2022/11/21 00:39:08;;;;;;;5.53;1.30;;;;;;;4.20;93.37;94692.56;4979703;28;20195;-84
2022/11/21 00:41:33;;;;;;;5.87;1.70;;;;;;;4.31;93.80;94699.34;4969676;28;20199;-84
2022/11/21 00:43:59;;;;;;;5.17;1.47;;;;;;;4.43;93.00;94688.06;4971757;28;20192;-83
2022/11/21 00:46:24;;;;;;;5.30;1.50;;;;;;;4.56;92.44;94693.75;4969946;28;20185;-84
2022/11/21 00:48:49;;;;;;;5.00;1.80;;;;;;;4.44;94.28;94689.69;4978252;28;20180;-83
2022/11/21 00:51:14;;;;;;;11.53;1.87;;;;;;;4.44;95.16;94679.41;4976388;28;20210;-83
2022/11/21 00:53:40;;;;;;;5.87;1.63;;;;;;;4.54;94.91;94677.66;4975995;28;20204;-83
2022/11/21 00:56:05;;;;;;;5.10;1.80;;;;;;;4.34;96.37;94688.84;4966801;28;20219;-84
2022/11/21 00:58:30;;;;;;;3.73;1.60;;;;;;;4.53;95.45;94681.97;4975097;28;20202;-82
2022/11/21 01:01:04;;;;;;;9.80;2.03;;;;;;;4.42;96.89;94676.97;4986758;28;20196;-84
2022/11/21 01:03:34;;;;;;;8.17;1.97;;;;;;;4.46;97.11;94682.63;4983135;28;20242;-84
2022/11/21 01:06:01;;;;;;;6.30;1.77;;;;;;;4.54;96.05;94685.38;4973624;28;20197;-82
2022/11/21 01:08:26;;;;;;;4.97;1.70;;;;;;;4.41;96.99;94693.31;4956475;28;20192;-83
2022/11/21 01:10:52;;;;;;;4.07;1.13;;;;;;;4.32;97.86;94696.66;4976322;28;20333;-85
2022/11/21 01:13:17;;;;;;;8.63;1.60;;;;;;;4.30;97.80;94688.28;4974666;28;20209;-83
2022/11/21 01:15:42;;;;;;;7.93;1.43;;;;;;;4.29;97.13;94696.94;4986264;28;20195;-82
2022/11/21 01:18:09;;;;;;;3.50;0.70;;;;;;;3.79;96.82;94689.13;4977435;28;20197;-82
2022/11/21 01:20:38;;;;;;;1.90;0.70;;;;;;;3.75;96.59;94704.94;4975900;28;20188;-83
2022/11/21 01:23:03;;;;;;;2.80;1.20;;;;;;;3.73;96.31;94699.13;4968804;28;20215;-83
2022/11/21 01:25:28;;;;;;;1.33;0.63;;;;;;;3.56;96.18;94682.53;4964257;28;20187;-83
2022/11/21 01:27:53;;;;;;;1.60;0.70;;;;;;;3.54;96.56;94671.59;4969760;28;20845;-82
2022/11/21 01:30:19;;;;;;;1.27;0.80;;;;;;;3.60;96.78;94679.56;4958560;28;20250;-84
2022/11/21 01:32:47;;;;;;;0.97;0.60;;;;;;;3.37;97.32;94666.06;4948870;28;20219;-85
2022/11/21 01:35:12;;;;;;;0.40;0.40;;;;;;;3.33;96.89;94662.09;4952260;28;20649;-84
2022/11/21 01:37:37;;;;;;;1.07;0.50;;;;;;;3.21;96.83;94667.44;4968638;28;20217;-84
2022/11/21 01:40:03;;;;;;;1.43;0.50;;;;;;;3.35;96.73;94667.13;4975616;28;20193;-83
2022/11/21 01:42:28;;;;;;;2.30;0.83;;;;;;;3.36;96.27;94671.34;4969342;28;20213;-84
2022/11/21 01:44:53;;;;;;;2.57;0.70;;;;;;;3.32;96.56;94669.94;4953689;28;20192;-84
2022/11/21 01:47:21;;;;;;;2.93;0.43;;;;;;;3.47;96.46;94663.56;4990634;28;20200;-85
2022/11/21 01:49:47;;;;;;;0.63;0.63;;;;;;;3.15;98.04;94671.31;4974973;28;20571;-84
2022/11/21 01:52:17;;;;;;;0.97;0.57;;;;;;;3.08;99.12;94665.03;4957790;28;20208;-84
2022/11/21 01:54:53;;;;;;;1.00;0.67;;;;;;;3.29;98.46;94662.50;4985681;28;20197;-85
2022/11/21 01:57:39;;;;;;;1.23;0.60;;;;;;;3.28;98.62;94668.56;4983211;28;20197;-85
2022/11/21 02:00:05;;;;;;;1.63;0.60;;;;;;;3.21;98.90;94670.00;4987319;28;20245;-84
2022/11/21 02:02:33;;;;;;;0.40;0.40;;;;;;;3.28;99.14;94658.31;4976454;28;20783;-84
2022/11/21 02:05:00;;;;;;;1.27;0.50;;;;;;;3.17;99.29;94660.91;4973725;28;20210;-85
2022/11/21 02:07:27;;;;;;;1.73;0.57;;;;;;;3.37;99.19;94662.69;4966777;28;20187;-84
2022/11/21 02:09:55;;;;;;;0.97;0.50;;;;;;;3.40;98.67;94665.81;4957986;28;20196;-85
2022/11/21 02:12:34;;;;;;;0.30;0.30;;;;;;;3.38;99.22;94667.69;4964824;28;20248;-84
2022/11/21 02:15:00;;;;;;;1.07;0.50;;;;;;;3.49;98.55;94660.88;4956050;28;20272;-84
2022/11/21 02:17:28;;;;;;;0.60;0.33;;;;;;;3.52;98.01;94660.59;4968423;28;20191;-85
2022/11/21 02:19:55;;;;;;;0.50;0.50;;;;;;;3.52;98.25;94661.41;4973935;28;20221;-85
2022/11/21 02:22:30;;;;;;;1.03;0.47;;;;;;;3.57;98.36;94661.84;4984926;28;20203;-85
2022/11/21 02:24:58;;;;;;;1.50;0.40;;;;;;;3.54;98.27;94659.56;4992774;28;20185;-85
2022/11/21 02:27:23;;;;;;;0.40;0.40;;;;;;;3.54;98.33;94657.00;4996921;28;20169;-85
2022/11/21 02:29:48;;;;;;;0.30;0.30;;;;;;;3.64;98.18;94655.28;4993072;28;20183;-85
2022/11/21 02:32:22;;;;;;;1.40;0.50;;;;;;;3.69;98.34;94655.69;4995761;28;20204;-85
2022/11/21 02:34:48;;;;;;;0.60;0.40;;;;;;;3.68;98.50;94653.25;4986117;28;20200;-84
2022/11/21 02:37:13;;;;;;;1.17;0.50;;;;;;;3.64;99.16;94654.47;4973484;28;20563;-84
2022/11/21 02:39:39;;;;;;;2.67;0.53;;;;;;;3.69;99.64;94655.69;4958110;28;20188;-83
2022/11/21 02:42:19;;;;;;;0.93;0.50;;;;;;;3.70;99.43;94659.06;4946598;28;20204;-84
2022/11/21 02:45:03;;;;;;;0.73;0.50;;;;;;;3.75;99.97;94645.88;4953251;28;20188;-85
2022/11/21 02:47:29;;;;;;;2.87;0.80;;;;;;;3.69;99.52;94636.91;4956689;28;20189;-84
2022/11/21 02:50:00;;;;;;;0.60;0.40;;;;;;;3.73;99.77;94634.91;4962002;28;20188;-85
2022/11/21 02:52:26;;;;;;;2.17;0.50;;;;;;;3.76;99.31;94632.91;4961991;28;20991;-84
2022/11/21 02:54:51;;;;;;;0.70;0.70;;;;;;;3.84;98.73;94627.13;4970288;28;20193;-81
2022/11/21 02:57:16;;;;;;;0.90;0.60;;;;;;;3.81;98.77;94619.69;4947088;28;20235;-82
2022/11/21 02:59:41;;;;;;;0.77;0.53;;;;;;;3.75;99.11;94622.75;4971049;28;20239;-83
2022/11/21 03:02:07;;;;;;;0.50;0.33;;;;;;;3.73;98.89;94622.88;4962150;28;20209;-83
2022/11/21 03:04:32;;;;;;;0.80;0.40;;;;;;;3.90;98.79;94624.84;4968787;28;20196;-83
2022/11/21 03:06:57;;;;;;;0.53;0.50;;;;;;;3.70;99.46;94616.25;4965600;28;20215;-82
2022/11/21 03:09:23;;;;;;;1.63;0.60;;;;;;;4.00;97.59;94622.31;4969174;28;20212;-83
2022/11/21 03:11:48;;;;;;;0.93;0.60;;;;;;;3.90;99.03;94622.28;4971941;28;20246;-82
2022/11/21 03:14:13;;;;;;;1.83;0.57;;;;;;;4.06;98.77;94618.41;4944414;28;20196;-82
2022/11/21 03:16:38;;;;;;;2.37;0.70;;;;;;;4.12;98.74;94617.88;4968532;28;20652;-82
2022/11/21 03:19:04;;;;;;;3.73;1.37;;;;;;;4.16;98.20;94609.78;4945525;28;20184;-82
2022/11/21 03:21:29;;;;;;;1.17;0.57;;;;;;;4.15;99.05;94613.31;4970626;28;20220;-83
2022/11/21 03:23:54;;;;;;;1.90;0.93;;;;;;;4.17;99.17;94601.13;4972841;28;20223;-83
2022/11/21 03:26:20;;;;;;;2.23;0.70;;;;;;;4.20;99.94;94611.16;4946392;28;20194;-83
2022/11/21 03:28:45;;;;;;;3.77;0.87;;;;;;;4.23;99.95;94599.78;4971373;28;20247;-82
2022/11/21 03:31:10;;;;;;;1.23;0.63;;;;;;;4.28;100.00;94604.53;4945823;28;20199;-84
2022/11/21 03:33:35;;;;;;;2.37;0.80;;;;;;;4.21;100.00;94596.53;4972380;28;20644;-83
2022/11/21 03:36:01;;;;;;;1.70;0.80;;;;;;;4.26;100.00;94605.47;4971927;28;20197;-83
2022/11/21 03:38:26;;;;;;;1.93;0.90;;;;;;;4.26;100.00;94599.53;4962177;28;20204;-82
2022/11/21 03:40:51;;;;;;;6.10;1.10;;;;;;;4.28;100.00;94596.81;4970981;28;20188;-83
2022/11/21 03:43:16;;;;;;;2.93;0.73;;;;;;;4.30;100.00;94602.63;4969645;28;20205;-84
2022/11/21 03:45:45;;;;;;;2.63;0.90;;;;;;;4.40;100.00;94606.84;4977218;28;20183;-83
2022/11/21 03:48:10;;;;;;;2.90;1.00;;;;;;;4.33;100.00;94600.63;4969584;28;20184;-84
2022/11/21 03:50:36;;;;;;;2.90;1.23;;;;;;;4.32;100.00;94591.28;4948744;28;20325;-84
2022/11/21 03:53:01;;;;;;;3.00;1.10;;;;;;;4.37;100.00;94594.28;4946237;28;20212;-84
2022/11/21 03:55:27;;;;;;;1.50;1.07;;;;;;;4.38;100.00;94585.59;4967328;28;20187;-84
2022/11/21 03:57:52;;;;;;;2.60;1.10;;;;;;;4.35;100.00;94583.31;4978300;28;20183;-83
2022/11/21 04:00:17;;;;;;;1.77;1.00;;;;;;;4.51;100.00;94581.03;4964260;28;20193;-84
2022/11/21 04:02:43;;;;;;;4.03;1.07;;;;;;;4.43;100.00;94582.66;4958638;28;20214;-83
2022/11/21 04:05:08;;;;;;;3.23;1.03;;;;;;;4.44;100.00;94594.56;4964039;28;20223;-82
2022/11/21 04:07:33;;;;;;;2.03;0.90;;;;;;;4.55;100.00;94602.13;4969711;28;20192;-83
2022/11/21 04:09:59;;;;;;;1.90;0.97;;;;;;;4.52;99.82;94595.50;4965482;28;20192;-82
2022/11/21 04:12:24;;;;;;;3.97;1.00;;;;;;;4.44;100.00;94590.22;4947348;28;20260;-82
2022/11/21 04:14:49;;;;;;;2.63;1.20;;;;;;;4.34;100.00;94586.84;4944918;28;20189;-83
2022/11/21 04:17:14;;;;;;;1.37;1.23;;;;;;;4.34;100.00;94578.31;4972392;28;20238;-83
2022/11/21 04:19:40;;;;;;;2.73;1.10;;;;;;;4.31;100.00;94576.00;4971838;28;20212;-83
2022/11/21 04:22:05;;;;;;;2.93;1.27;;;;;;;4.26;100.00;94578.97;4947080;28;20725;-83
2022/11/21 04:24:30;;;;;;;3.87;1.77;;;;;;;4.32;100.00;94573.28;4946473;28;20191;-83
2022/11/21 04:26:56;;;;;;;5.03;1.47;;;;;;;4.20;100.00;94575.16;4942893;28;20192;-83
2022/11/21 04:29:21;;;;;;;5.00;1.50;;;;;;;4.20;100.00;94572.59;4970112;28;20192;-82
2022/11/21 04:31:46;;;;;;;3.67;1.80;;;;;;;4.16;100.00;94580.72;4970141;28;20212;-83
2022/11/21 04:34:11;;;;;;;4.77;1.60;;;;;;;4.14;100.00;94570.53;4957863;28;20215;-83
2022/11/21 04:36:37;;;;;;;1.53;1.43;;;;;;;4.05;100.00;94579.03;4963098;28;20196;-83
2022/11/21 04:39:02;;;;;;;4.43;2.00;;;;;;;4.15;100.00;94576.50;4965018;28;20195;-83
2022/11/21 04:41:27;;;;;;;4.83;2.10;;;;;;;4.12;100.00;94577.59;4948705;28;20757;-83
2022/11/21 04:43:53;;;;;;;5.63;1.73;;;;;;;4.14;100.00;94574.88;4961541;28;20211;-82
2022/11/21 04:46:20;;;;;;;3.07;1.60;;;;;;;4.06;100.00;94574.72;4971454;28;20222;-83
2022/11/21 04:48:46;;;;;;;4.70;1.87;;;;;;;4.01;100.00;94575.13;4951629;28;20191;-83
2022/11/21 04:51:11;;;;;;;4.17;2.33;;;;;;;4.04;100.00;94582.56;4970241;28;20187;-83
2022/11/21 04:53:36;;;;;;;2.77;1.67;;;;;;;3.94;100.00;94579.16;4955420;28;20211;-83
2022/11/21 04:56:04;;;;;;;6.20;1.70;;;;;;;4.03;100.00;94580.94;4964907;28;20203;-84
2022/11/21 04:58:32;;;;;;;3.83;1.73;;;;;;;3.90;100.00;94588.09;4959663;28;20193;-83
2022/11/21 05:00:57;;;;;;;4.70;2.00;;;;;;;3.89;100.00;94579.56;4968121;28;20194;-84
2022/11/21 05:03:22;;;;;;;4.30;1.90;;;;;;;3.93;100.00;94577.53;4976100;28;20223;-84
2022/11/21 05:05:47;;;;;;;4.60;1.80;;;;;;;3.93;98.52;94574.97;4973336;28;20198;-83
2022/11/21 05:08:13;;;;;;;6.10;1.90;;;;;;;3.85;97.62;94579.94;4955399;28;20275;-84
2022/11/21 05:13:22;;;;;;;3.30;1.30;;;;;;;3.97;97.33;94589.16;4966986;28;20216;-84
2022/11/21 05:15:50;;;;;;;1.70;1.30;;;;;;;4.08;97.38;94595.97;4973122;28;20188;-83
2022/11/21 05:18:17;;;;;;;5.20;1.37;;;;;;;4.08;97.67;94593.41;4964613;28;20196;-84
2022/11/21 05:20:42;;;;;;;4.97;1.60;;;;;;;4.00;98.35;94591.50;4964561;28;20589;-84
2022/11/21 05:23:08;;;;;;;4.63;1.30;;;;;;;4.03;98.72;94591.22;4967242;28;20214;-83
2022/11/21 05:25:33;;;;;;;3.87;1.70;;;;;;;3.88;99.09;94587.38;4975325;28;20181;-83
2022/11/21 05:27:58;;;;;;;7.60;1.83;;;;;;;3.84;100.00;94597.09;4973568;28;20192;-84
2022/11/21 05:30:24;;;;;;;2.50;0.93;;;;;;;3.71;100.00;94593.97;4965940;28;20192;-82
2022/11/21 05:32:49;;;;;;;3.20;1.50;;;;;;;3.66;99.18;94602.03;4968105;28;20216;-81
2022/11/21 05:35:14;;;;;;;2.03;1.10;;;;;;;3.78;99.40;94596.81;4945880;28;20202;-83
2022/11/21 05:37:39;;;;;;;1.73;0.93;;;;;;;3.79;98.39;94594.09;4965230;28;20208;-81
2022/11/21 05:40:06;;;;;;;2.40;1.30;;;;;;;3.78;99.65;94595.06;4947307;28;20181;-82
2022/11/21 05:45:17;;;;;;;3.10;1.20;;;;;;;3.87;100.00;94598.59;4972954;28;20664;-83
2022/11/21 05:47:42;;;;;;;1.73;1.20;;;;;;;3.92;100.00;94607.56;4964767;28;20220;-83
2022/11/21 05:50:08;;;;;;;2.63;1.50;;;;;;;4.00;100.00;94593.25;4975407;28;20662;-83
2022/11/21 05:52:33;;;;;;;7.73;2.17;;;;;;;4.00;100.00;94594.06;4972366;28;20211;-83
2022/11/21 05:54:59;;;;;;;5.40;2.50;;;;;;;4.04;100.00;94594.59;4976533;28;20189;-82
2022/11/21 05:57:24;;;;;;;6.10;2.67;;;;;;;4.02;100.00;94591.34;4977524;28;20203;-83
2022/11/21 05:59:49;;;;;;;8.93;2.70;;;;;;;4.01;100.00;94600.81;4974307;28;20214;-83
2022/11/21 06:04:58;;;;;;;8.63;2.17;;;;;;;4.02;100.00;94581.88;4965445;28;20207;-83
2022/11/21 06:07:23;;;;;;;6.87;2.37;;;;;;;4.08;100.00;94591.66;4963879;28;20193;-83
2022/11/21 06:09:49;;;;;;;6.43;2.40;;;;;;;4.04;100.00;94590.28;4965920;28;20191;-84
2022/11/21 06:12:14;;;;;;;7.47;2.20;;;;;;;3.96;100.00;94587.53;4949475;28;20213;-83
2022/11/21 06:14:39;;;;;;;7.77;2.80;;;;;;;4.01;100.00;94600.00;4950284;28;20190;-84
2022/11/21 06:17:05;;;;;;;10.87;3.33;;;;;;;4.08;100.00;94594.22;4976259;28;20206;-83
2022/11/21 06:19:34;;;;;;;9.77;2.80;;;;;;;4.05;100.00;94591.91;4975922;28;20782;-83
2022/11/21 06:21:59;;;;;;;12.40;3.53;;;;;;;4.07;100.00;94596.94;4951103;28;20379;-84
2022/11/21 06:24:25;;;;;;;8.67;3.00;;;;;;;4.03;100.00;94593.78;4950264;28;20200;-84
2022/11/21 06:26:50;;;;;;;3.53;2.30;;;;;;;3.98;100.00;94580.53;4972318;28;20196;-84
2022/11/21 06:29:15;;;;;;;11.43;2.70;;;;;;;3.98;99.39;94596.75;4971306;28;20191;-82
2022/11/21 06:31:41;;;;;;;7.60;2.60;;;;;;;3.90;99.24;94591.47;4974597;28;20193;-83
2022/11/21 06:34:06;;;;;;;6.07;2.60;;;;;;;3.89;98.45;94589.84;4975159;28;20190;-84
2022/11/21 06:36:31;;;;;;;7.67;2.60;;;;;;;3.87;98.02;94603.72;4970684;28;20191;-83
2022/11/21 06:38:56;;;;;;;14.13;2.83;;;;;;;3.78;99.12;94607.88;4974597;28;20221;-82
2022/11/21 06:41:24;;;;;;;4.97;2.43;;;;;;;3.69;99.01;94596.63;4973363;28;20657;-81
2022/11/21 06:43:50;;;;;;;10.93;2.63;;;;;;;3.84;98.01;94604.81;4945296;28;20207;-83
2022/11/21 06:46:15;;;;;;;7.63;2.40;;;;;;;3.90;97.88;94593.22;4974198;28;20242;-83
2022/11/21 06:48:41;;;;;;;7.97;3.03;;;;;;;3.84;98.96;94601.44;4948607;28;20261;-82
2022/11/21 06:51:11;;;;;;;6.60;2.63;;;;;;;3.85;98.70;94608.19;4974973;28;20191;-82
2022/11/21 06:53:36;;;;;;;9.37;2.67;;;;;;;3.90;98.97;94614.59;4975237;28;20213;-83
2022/11/21 06:56:02;;;;;;;6.43;2.23;;;;;;;3.96;98.48;94626.88;4971819;28;20251;-83
2022/11/21 06:58:28;;;;;;;7.87;3.23;;;;;;;3.89;98.46;94623.22;4960985;28;20313;-84
2022/11/21 07:00:54;;;;;;;11.07;3.93;;;;;;;4.01;97.52;94623.94;4968025;28;20584;-83
2022/11/21 07:03:21;;;;;;;3.63;2.23;;;;;;;3.95;97.17;94632.16;4966652;28;20221;-81
2022/11/21 07:05:46;;;;;;;7.40;2.50;;;;;;;3.87;96.91;94621.72;4970142;28;20671;-82
2022/11/21 07:08:11;;;;;;;4.87;2.07;;;;;;;3.88;95.95;94610.50;4966489;28;20203;-83
2022/11/21 07:10:36;;;;;;;7.67;2.17;;;;;;;3.84;95.07;94621.97;4965649;28;20192;-82
2022/11/21 07:15:46;;;;;;;8.33;2.10;;;;;;;3.82;95.09;94626.44;4963216;28;20208;-82
2022/11/21 07:18:12;;;;;;;6.83;2.30;;;;;;;3.72;94.40;94623.84;4967311;28;20213;-82
2022/11/21 07:20:38;;;;;;;8.53;1.90;;;;;;;3.73;93.92;94628.03;4964947;28;20197;-82
2022/11/21 07:23:04;;;;;;;7.83;1.70;;;;;;;3.81;93.26;94619.69;4971865;28;20197;-82
2022/11/21 07:25:29;;;;;;;4.83;1.63;;;;;;;3.83;93.02;94623.75;4964925;28;20244;-83
2022/11/21 07:27:58;;;;;;;6.30;2.27;;;;;;;3.87;92.88;94625.09;4965956;28;20261;-83
2022/11/21 07:30:24;;;;;;;6.30;2.10;;;;;;;3.98;92.11;94626.78;4965210;28;20643;-82
2022/11/21 07:32:56;;;;;;;6.50;2.50;;;;;;;3.87;91.37;94634.56;4966001;28;20217;-83
2022/11/21 07:35:21;;;;;;;4.00;1.47;;;;;;;3.87;91.03;94622.53;4955571;28;20188;-82
2022/11/21 07:37:46;;;;;;;2.90;1.70;;;;;;;3.82;90.29;94616.16;4972913;28;20208;-83
2022/11/21 07:40:12;;;;;;;5.13;1.60;;;;;;;3.85;90.45;94621.84;4963035;28;20193;-83
2022/11/21 07:42:37;;;;;;;2.37;1.53;;;;;;;3.84;90.39;94619.41;4968363;28;20257;-82
2022/11/21 07:45:03;;;;;;;9.77;2.63;;;;;;;4.04;90.50;94612.59;4971589;28;20672;-83
2022/11/21 07:47:28;;;;;;;5.30;1.63;;;;;;;4.15;89.70;94621.03;4967984;28;20180;-82
2022/11/21 07:49:53;;;;;;;3.43;1.67;;;;;;;4.28;89.60;94617.38;4940267;28;20204;-82
2022/11/21 07:52:19;;;;;;;5.20;1.80;;;;;;;4.34;89.32;94622.00;4963123;28;20212;-83
2022/11/21 07:54:44;;;;;;;5.30;2.00;;;;;;;4.33;89.56;94628.91;4971885;28;20222;-85
2022/11/21 07:57:09;;;;;;;6.47;2.40;;;;;;;4.35;90.17;94634.72;4947073;28;20194;-81
2022/11/21 07:59:36;;;;;;;7.40;2.43;;;;;;;4.43;90.56;94629.75;4970832;28;20189;-83
2022/11/21 08:02:02;;;;;;;17.40;11.33;;;;;;;4.50;89.76;94641.09;4971229;28;20212;-82
2022/11/21 08:04:27;;;;;;;5.27;3.00;;;;;;;4.64;89.36;94629.63;4970618;28;20200;-83
2022/11/21 08:06:52;;;;;;;13.80;2.30;;;;;;;4.56;89.05;94626.91;4968797;28;20196;-82
2022/11/21 08:09:18;;;;;;;7.20;2.10;;;;;;;4.82;88.84;94625.44;4943694;28;20207;-82
2022/11/21 08:11:43;;;;;;;7.70;2.57;;;;;;;4.95;88.63;94626.94;4946773;28;20220;-83
2022/11/21 08:14:08;;;;;;;5.47;2.57;;;;;;;4.82;89.26;94619.47;4951343;28;20220;-83
2022/11/21 08:16:33;;;;;;;8.63;2.10;;;;;;;4.73;89.53;94618.53;4970292;28;20185;-83
2022/11/21 08:18:59;;;;;;;7.63;1.90;;;;;;;4.77;89.53;94625.03;4971251;28;20194;-82
2022/11/21 08:21:25;;;;;;;5.27;2.30;;;;;;;4.80;90.47;94627.34;4962704;28;20189;-83
2022/11/21 08:23:50;;;;;;;9.37;2.83;;;;;;;4.86;89.23;94627.72;4970121;28;20250;-82
2022/11/21 08:26:16;;;;;;;4.70;2.30;;;;;;;5.03;89.39;94629.63;4977108;28;20197;-82
2022/11/21 08:28:41;;;;;;;4.50;2.73;;;;;;;4.87;89.75;94624.22;4969130;28;20557;-82
2022/11/21 08:31:07;;;;;;;8.67;2.30;;;;;;;4.84;89.58;94620.97;4946727;28;20184;-82
2022/11/21 08:33:32;;;;;;;12.23;6.87;;;;;;;4.86;89.11;94623.41;4953804;28;20299;-82
2022/11/21 08:35:57;;;;;;;10.60;5.83;;;;;;;4.90;89.39;94621.38;4976066;28;20283;-82
2022/11/21 08:38:23;;;;;;;16.10;10.03;;;;;;;5.05;88.72;94612.31;4952182;28;20326;-82
2022/11/21 08:42:01;;;;;;;6.50;3.07;;;;;;;4.97;88.66;94614.75;4952527;28;20192;-83
2022/11/21 08:43:36;;;;;;;11.40;6.63;;;;;;;5.25;88.00;94620.81;4972285;28;20571;-82
2022/11/21 08:46:02;;;;;;;10.33;4.00;;;;;;;5.42;87.11;94614.16;4966422;28;20204;-82
2022/11/21 08:48:27;;;;;;;13.33;5.40;;;;;;;5.46;86.75;94608.56;4973837;28;20189;-83
2022/11/21 08:50:52;;;;;;;16.93;7.87;;;;;;;5.35;86.34;94599.25;4959743;28;20252;-82
2022/11/21 08:53:17;;;;;;;10.57;3.17;;;;;;;5.57;86.35;94602.47;4974630;28;20677;-81
2022/11/21 08:55:43;;;;;;;7.30;2.33;;;;;;;5.57;85.03;94595.53;4965959;28;20191;-83
2022/11/21 08:58:08;;;;;;;10.50;2.20;;;;;;;5.65;85.47;94599.97;4969568;28;20205;-82
2022/11/21 09:00:33;;;;;;;8.33;2.27;;;;;;;5.76;85.38;94594.66;4948485;28;20775;-82
2022/11/21 09:03:03;;;;;;;11.93;2.10;;;;;;;5.68;85.93;94594.56;4975692;28;20209;-84
2022/11/21 09:05:28;;;;;;;6.93;1.93;;;;;;;5.75;85.42;94592.25;4972414;28;20882;-83
2022/11/21 09:07:57;;;;;;;4.87;1.63;;;;;;;5.86;84.99;94590.28;4961143;28;20189;-82
2022/11/21 09:10:23;;;;;;;7.17;2.33;;;;;;;5.71;85.45;94583.16;4966893;28;20193;-82
2022/11/21 09:12:48;;;;;;;6.37;2.20;;;;;;;5.68;85.64;94579.91;4958671;28;20216;-82
2022/11/21 09:18:06;;;;;;;4.00;1.33;;;;;;;5.79;85.02;94571.19;4940326;28;20200;-82
2022/11/21 09:20:37;;;;;;;9.37;1.77;;;;;;;5.97;84.75;94579.81;4967010;28;20211;-83
2022/11/21 09:23:13;;;;;;;7.90;1.60;;;;;;;5.72;84.95;94592.50;4953849;28;20204;-82
2022/11/21 09:25:38;;;;;;;5.27;1.73;;;;;;;6.02;84.21;94592.28;4972025;28;20233;-84
2022/11/21 09:28:06;;;;;;;8.93;1.53;;;;;;;6.14;83.62;94582.59;4974436;28;20255;-84
2022/11/21 09:30:31;;;;;;;5.30;1.57;;;;;;;6.18;83.59;94583.91;4983974;28;20197;-84
2022/11/21 09:33:00;;;;;;;5.50;1.77;;;;;;;6.17;83.14;94585.66;4961466;28;20216;-82
2022/11/21 09:35:27;;;;;;;8.20;1.87;;;;;;;6.25;82.92;94584.94;4963541;28;20722;-84
2022/11/21 09:37:52;;;;;;;6.23;2.00;;;;;;;6.37;82.25;94585.59;4965851;28;20197;-84
2022/11/21 09:40:18;;;;;;;5.07;1.97;;;;;;;6.60;81.40;94585.97;4964358;28;20196;-83
2022/11/21 09:42:59;;;;;;;5.53;2.13;;;;;;;6.39;80.69;94574.16;4950096;28;20213;-84
2022/11/21 09:45:26;;;;;;;6.53;1.70;;;;;;;6.20;80.94;94566.53;4962668;28;20701;-85
2022/11/21 09:47:52;;;;;;;5.17;1.37;;;;;;;6.61;79.98;94567.75;4973167;28;20286;-84
2022/11/21 09:50:26;;;;;;;7.30;2.03;;;;;;;6.60;80.03;94575.63;4981715;28;20192;-84
2022/11/21 09:52:54;;;;;;;5.03;2.20;;;;;;;6.61;79.94;94566.94;4966495;28;21034;-84
2022/11/21 09:55:40;;;;;;;3.30;1.50;;;;;;;6.56;78.17;94561.44;4971269;28;20358;-84
2022/11/21 09:58:13;;;;;;;6.13;1.80;;;;;;;6.63;76.39;94558.13;4959357;28;20259;-84
2022/11/21 10:00:39;;;;;;;3.90;1.50;;;;;;;6.60;76.10;94566.13;4962902;28;20181;-84
2022/11/21 10:03:04;;;;;;;11.17;2.10;;;;;;;6.92;75.90;94560.44;4975167;28;20679;-84
2022/11/21 10:05:42;;;;;;;5.23;1.87;;;;;;;6.99;76.78;94546.00;4974264;28;20543;-84
2022/11/21 10:08:26;;;;;;;4.90;1.60;;;;;;;7.11;75.84;94551.72;4972046;28;20192;-84
2022/11/21 10:10:57;;;;;;;12.83;2.90;;;;;;;7.15;74.93;94544.47;4986746;28;20192;-83
2022/11/21 10:13:54;;;;;;;7.47;3.43;;;;;;;7.12;74.62;94535.25;4975162;28;20292;-84
2022/11/21 10:16:28;;;;;;;9.33;2.40;;;;;;;7.20;75.14;94531.94;4962159;28;20276;-82
2022/11/21 10:19:20;;;;;;;14.50;4.03;;;;;;;7.32;75.03;94528.13;4961533;28;20188;-82
2022/11/21 10:22:07;;;;;;;8.67;1.90;;;;;;;7.08;74.47;94521.84;4981121;28;20220;-83
2022/11/21 10:24:39;;;;;;;7.73;2.33;;;;;;;6.88;74.37;94528.13;4974197;28;20225;-83
2022/11/21 10:28:00;;;;;;;4.97;1.80;;;;;;;6.72;73.55;94523.69;4973875;28;20288;-83
2022/11/21 10:30:26;;;;;;;7.87;2.10;;;;;;;6.71;73.50;94514.28;4881613;29;20215;-83
2022/11/21 10:32:55;;;;;;;7.43;2.50;;;;;;;6.95;73.18;94516.25;4946534;28;20335;-84
2022/11/21 10:35:22;;;;;;;7.80;3.87;;;;;;;7.05;72.74;94511.81;4974366;28;20231;-83
2022/11/21 10:37:52;;;;;;;7.70;2.50;;;;;;;7.21;73.42;94510.31;4982973;28;20204;-84
2022/11/21 10:40:21;;;;;;;13.23;2.47;;;;;;;7.29;73.50;94506.00;4987627;28;20196;-83
2022/11/21 10:42:53;;;;;;;8.30;3.30;;;;;;;7.42;73.81;94489.25;4992182;28;20224;-83
2022/11/21 10:45:19;;;;;;;5.83;1.73;;;;;;;7.26;73.29;94495.19;4977004;28;20193;-84
2022/11/21 10:47:46;;;;;;;6.93;1.47;;;;;;;7.32;73.20;94497.94;4980735;28;20191;-84
2022/11/21 10:50:21;;;;;;;5.20;1.70;;;;;;;7.41;72.77;94485.88;4966559;28;20219;-84
2022/11/21 10:52:59;;;;;;;4.70;1.50;;;;;;;7.54;72.40;94477.72;4966476;28;20208;-83
2022/11/21 10:55:24;;;;;;;5.53;1.27;;;;;;;7.37;72.61;94476.81;4968800;28;20680;-84
2022/11/21 10:57:51;;;;;;;6.03;1.60;;;;;;;7.20;71.54;94462.22;4971607;28;20189;-84
2022/11/21 11:00:22;;;;;;;6.07;2.50;;;;;;;7.49;71.41;94459.28;4980126;28;20192;-84
2022/11/21 11:02:53;;;;;;;5.13;1.80;;;;;;;7.27;70.84;94452.88;4973142;28;20220;-84
2022/11/21 11:05:24;;;;;;;7.33;2.60;;;;;;;7.43;70.51;94452.16;4971993;28;20215;-84
2022/11/21 11:08:09;;;;;;;13.10;4.13;;;;;;;7.49;70.06;94442.00;4979564;28;20660;-84
2022/11/21 11:10:42;;;;;;;4.90;1.63;;;;;;;7.56;70.70;94443.00;4958426;28;20187;-84
2022/11/21 11:16:00;;;;;;;6.03;1.67;;;;;;;7.32;70.70;94437.72;4973940;28;20648;-84
2022/11/21 11:18:25;;;;;;;11.17;2.10;;;;;;;7.32;70.44;94429.97;4962575;28;20248;-83
2022/11/21 11:20:51;;;;;;;4.60;1.23;;;;;;;7.34;70.00;94425.50;4974111;28;20185;-84
2022/11/21 11:23:19;;;;;;;9.33;1.80;;;;;;;7.45;69.59;94417.47;4968022;28;20204;-84
2022/11/21 11:25:52;;;;;;;8.00;1.90;;;;;;;7.19;69.80;94412.34;4966349;28;20227;-84
2022/11/21 11:28:18;;;;;;;5.70;1.63;;;;;;;7.38;68.98;94416.47;4963851;28;20180;-83
2022/11/21 11:30:43;;;;;;;5.37;2.00;;;;;;;7.58;68.92;94407.47;4965631;28;20192;-84
2022/11/21 11:33:38;;;;;;;5.70;1.77;;;;;;;7.86;67.49;94409.81;4958482;28;20292;-83
2022/11/21 11:36:36;;;;;;;3.70;1.83;;;;;;;7.92;67.43;94398.84;4963265;28;20196;-84
2022/11/21 11:39:10;;;;;;;3.33;1.37;;;;;;;8.02;67.08;94394.31;4986600;28;20181;-84
2022/11/21 11:47:29;;;;;;;7.20;1.83;;;;;;;8.11;65.97;94389.97;4949844;29;20187;-84
2022/11/21 11:47:31;;;;;;;4.40;1.50;;;;;;;8.65;63.13;94385.94;4965021;28;20220;-85
2022/11/21 11:50:20;;;;;;;3.97;1.10;;;;;;;8.26;62.82;94379.81;4966521;28;20199;-83
2022/11/21 11:52:54;;;;;;;3.20;1.30;;;;;;;8.60;62.01;94372.69;4956113;28;20204;-83
2022/11/21 11:55:47;;;;;;;7.93;3.23;;;;;;;8.82;62.55;94371.19;4957513;28;20192;-82
2022/11/21 11:58:37;;;;;;;4.40;2.87;;;;;;;8.68;61.89;94359.75;4945414;28;20196;-85
2022/11/21 12:01:10;;;;;;;8.00;2.70;;;;;;;8.49;60.58;94368.69;4966233;28;20196;-83